sensor_id;sensor_type;location;lat;lon;timestamp;temperature;humidity
21627;DHT22;10975;47.872;12.972;2023-09-19T00:00:44;17.10;99.90
21627;DHT22;10975;47.872;12.972;2023-09-19T00:03:14;17.00;99.90
21627;DHT22;10975;47.872;12.972;2023-09-19T00:05:41;17.00;99.90
21627;DHT22;10975;47.872;12.972;2023-09-19T00:08:12;17.00;99.90
21627;DHT22;10975;47.872;12.972;2023-09-19T00:10:42;17.00;99.90
21627;DHT22;10975;47.872;12.972;2023-09-19T00:13:09;17.00;99.90
21627;DHT22;10975;47.872;12.972;2023-09-19T00:15:41;17.00;99.90
21627;DHT22;10975;47.872;12.972;2023-09-19T00:18:08;17.00;99.90
21627;DHT22;10975;47.872;12.972;2023-09-19T00:20:36;17.00;99.90
21627;DHT22;10975;47.872;12.972;2023-09-19T00:23:03;17.00;99.90
21627;DHT22;10975;47.872;12.972;2023-09-19T00:25:31;16.90;99.90
21627;DHT22;10975;47.872;12.972;2023-09-19T00:27:59;16.90;99.90
21627;DHT22;10975;47.872;12.972;2023-09-19T00:30:25;16.90;99.90
21627;DHT22;10975;47.872;12.972;2023-09-19T00:32:52;16.80;99.90
21627;DHT22;10975;47.872;12.972;2023-09-19T00:35:22;16.90;99.90
21627;DHT22;10975;47.872;12.972;2023-09-19T00:37:52;16.80;99.90
21627;DHT22;10975;47.872;12.972;2023-09-19T00:40:19;16.80;99.90
21627;DHT22;10975;47.872;12.972;2023-09-19T00:42:48;16.80;99.90
21627;DHT22;10975;47.872;12.972;2023-09-19T00:45:16;16.80;99.90
21627;DHT22;10975;47.872;12.972;2023-09-19T00:47:48;16.80;99.90
21627;DHT22;10975;47.872;12.972;2023-09-19T00:50:18;16.80;99.90
21627;DHT22;10975;47.872;12.972;2023-09-19T00:52:49;16.70;99.90
21627;DHT22;10975;47.872;12.972;2023-09-19T00:55:17;16.70;99.90
21627;DHT22;10975;47.872;12.972;2023-09-19T00:57:47;16.70;99.90
21627;DHT22;10975;47.872;12.972;2023-09-19T01:00:16;16.60;99.90
21627;DHT22;10975;47.872;12.972;2023-09-19T01:02:47;16.60;99.90
21627;DHT22;10975;47.872;12.972;2023-09-19T01:05:15;16.60;99.90
21627;DHT22;10975;47.872;12.972;2023-09-19T01:07:42;16.70;99.90
21627;DHT22;10975;47.872;12.972;2023-09-19T01:10:11;16.70;99.90
21627;DHT22;10975;47.872;12.972;2023-09-19T01:15:11;16.70;99.90
21627;DHT22;10975;47.872;12.972;2023-09-19T01:17:45;16.70;99.90
21627;DHT22;10975;47.872;12.972;2023-09-19T01:20:21;16.70;99.90
21627;DHT22;10975;47.872;12.972;2023-09-19T01:23:35;16.70;99.90
21627;DHT22;10975;47.872;12.972;2023-09-19T01:30:56;16.70;99.90
21627;DHT22;10975;47.872;12.972;2023-09-19T01:33:25;16.60;99.90
21627;DHT22;10975;47.872;12.972;2023-09-19T01:35:52;16.60;99.90
21627;DHT22;10975;47.872;12.972;2023-09-19T01:38:19;16.50;99.90
21627;DHT22;10975;47.872;12.972;2023-09-19T01:41:11;16.50;99.90
21627;DHT22;10975;47.872;12.972;2023-09-19T01:43:36;16.50;99.90
21627;DHT22;10975;47.872;12.972;2023-09-19T01:54:16;16.60;99.90
21627;DHT22;10975;47.872;12.972;2023-09-19T01:56:53;16.60;99.90
21627;DHT22;10975;47.872;12.972;2023-09-19T01:59:25;16.60;99.90
21627;DHT22;10975;47.872;12.972;2023-09-19T02:01:54;16.60;99.90
21627;DHT22;10975;47.872;12.972;2023-09-19T02:04:21;16.50;99.90
21627;DHT22;10975;47.872;12.972;2023-09-19T02:06:48;16.50;99.90
21627;DHT22;10975;47.872;12.972;2023-09-19T02:09:14;16.50;99.90
21627;DHT22;10975;47.872;12.972;2023-09-19T02:11:41;16.50;99.90
21627;DHT22;10975;47.872;12.972;2023-09-19T02:14:08;16.50;99.90
21627;DHT22;10975;47.872;12.972;2023-09-19T02:16:35;16.50;99.90
21627;DHT22;10975;47.872;12.972;2023-09-19T02:19:02;16.60;99.90
21627;DHT22;10975;47.872;12.972;2023-09-19T02:21:32;16.60;99.90
21627;DHT22;10975;47.872;12.972;2023-09-19T02:23:59;16.60;99.90
21627;DHT22;10975;47.872;12.972;2023-09-19T02:26:25;16.60;99.90
21627;DHT22;10975;47.872;12.972;2023-09-19T02:28:54;16.60;99.90
21627;DHT22;10975;47.872;12.972;2023-09-19T02:31:21;16.50;99.90
21627;DHT22;10975;47.872;12.972;2023-09-19T02:33:47;16.50;99.90
21627;DHT22;10975;47.872;12.972;2023-09-19T02:36:14;16.40;99.90
21627;DHT22;10975;47.872;12.972;2023-09-19T02:38:44;16.40;99.90
21627;DHT22;10975;47.872;12.972;2023-09-19T02:41:10;16.40;99.90
21627;DHT22;10975;47.872;12.972;2023-09-19T02:43:38;16.40;99.90
21627;DHT22;10975;47.872;12.972;2023-09-19T02:46:05;16.40;99.90
21627;DHT22;10975;47.872;12.972;2023-09-19T02:48:33;16.40;99.90
21627;DHT22;10975;47.872;12.972;2023-09-19T02:51:01;16.40;99.90
21627;DHT22;10975;47.872;12.972;2023-09-19T02:53:28;16.30;99.90
21627;DHT22;10975;47.872;12.972;2023-09-19T02:55:55;16.30;99.90
21627;DHT22;10975;47.872;12.972;2023-09-19T02:58:22;16.30;99.90
21627;DHT22;10975;47.872;12.972;2023-09-19T03:00:51;16.30;99.90
21627;DHT22;10975;47.872;12.972;2023-09-19T03:03:18;16.30;99.90
21627;DHT22;10975;47.872;12.972;2023-09-19T03:05:45;16.30;99.90
21627;DHT22;10975;47.872;12.972;2023-09-19T03:08:14;16.40;99.90
21627;DHT22;10975;47.872;12.972;2023-09-19T03:10:41;16.40;99.90
21627;DHT22;10975;47.872;12.972;2023-09-19T03:13:08;16.50;99.90
21627;DHT22;10975;47.872;12.972;2023-09-19T03:15:36;16.50;99.90
21627;DHT22;10975;47.872;12.972;2023-09-19T03:18:06;16.40;99.90
21627;DHT22;10975;47.872;12.972;2023-09-19T03:20:32;16.40;99.90
21627;DHT22;10975;47.872;12.972;2023-09-19T03:22:59;16.40;99.90
21627;DHT22;10975;47.872;12.972;2023-09-19T03:25:26;16.40;99.90
21627;DHT22;10975;47.872;12.972;2023-09-19T03:27:56;16.50;99.90
21627;DHT22;10975;47.872;12.972;2023-09-19T03:30:24;16.40;99.90
21627;DHT22;10975;47.872;12.972;2023-09-19T03:32:51;16.40;99.90
21627;DHT22;10975;47.872;12.972;2023-09-19T03:35:18;16.40;99.90
21627;DHT22;10975;47.872;12.972;2023-09-19T03:37:44;16.50;99.90
21627;DHT22;10975;47.872;12.972;2023-09-19T03:40:12;16.50;99.90
21627;DHT22;10975;47.872;12.972;2023-09-19T03:42:39;16.50;99.90
21627;DHT22;10975;47.872;12.972;2023-09-19T03:45:09;16.50;99.90
21627;DHT22;10975;47.872;12.972;2023-09-19T03:47:40;16.50;99.90
21627;DHT22;10975;47.872;12.972;2023-09-19T03:50:07;16.50;99.90
21627;DHT22;10975;47.872;12.972;2023-09-19T03:52:34;16.50;99.90
21627;DHT22;10975;47.872;12.972;2023-09-19T03:55:01;16.60;99.90
21627;DHT22;10975;47.872;12.972;2023-09-19T03:57:32;16.60;99.90
21627;DHT22;10975;47.872;12.972;2023-09-19T03:59:58;16.60;99.90
21627;DHT22;10975;47.872;12.972;2023-09-19T04:02:25;16.60;99.90
21627;DHT22;10975;47.872;12.972;2023-09-19T04:04:52;16.60;99.90
21627;DHT22;10975;47.872;12.972;2023-09-19T04:07:19;16.60;99.90
21627;DHT22;10975;47.872;12.972;2023-09-19T04:09:49;16.40;99.90
21627;DHT22;10975;47.872;12.972;2023-09-19T04:12:16;16.50;99.90
21627;DHT22;10975;47.872;12.972;2023-09-19T04:14:45;16.40;99.90
21627;DHT22;10975;47.872;12.972;2023-09-19T04:17:12;16.50;99.90
21627;DHT22;10975;47.872;12.972;2023-09-19T04:19:39;16.50;99.90
21627;DHT22;10975;47.872;12.972;2023-09-19T04:22:07;16.50;99.90
21627;DHT22;10975;47.872;12.972;2023-09-19T04:24:35;16.50;99.90
21627;DHT22;10975;47.872;12.972;2023-09-19T04:27:02;16.50;99.90
21627;DHT22;10975;47.872;12.972;2023-09-19T04:29:29;16.50;99.90
21627;DHT22;10975;47.872;12.972;2023-09-19T04:31:56;16.50;99.90
21627;DHT22;10975;47.872;12.972;2023-09-19T04:34:23;16.60;99.90
21627;DHT22;10975;47.872;12.972;2023-09-19T04:36:51;16.50;99.90
21627;DHT22;10975;47.872;12.972;2023-09-19T04:39:17;16.50;99.90
21627;DHT22;10975;47.872;12.972;2023-09-19T04:41:44;16.50;99.90
21627;DHT22;10975;47.872;12.972;2023-09-19T04:44:12;16.50;99.90
21627;DHT22;10975;47.872;12.972;2023-09-19T04:46:39;16.50;99.90
21627;DHT22;10975;47.872;12.972;2023-09-19T04:49:06;16.50;99.90
21627;DHT22;10975;47.872;12.972;2023-09-19T04:51:32;16.50;99.90
21627;DHT22;10975;47.872;12.972;2023-09-19T04:54:01;16.40;99.90
21627;DHT22;10975;47.872;12.972;2023-09-19T04:56:28;16.40;99.90
21627;DHT22;10975;47.872;12.972;2023-09-19T04:58:59;16.40;99.90
21627;DHT22;10975;47.872;12.972;2023-09-19T05:01:26;16.40;99.90
21627;DHT22;10975;47.872;12.972;2023-09-19T05:03:53;16.40;99.90
21627;DHT22;10975;47.872;12.972;2023-09-19T05:06:20;16.50;99.90
21627;DHT22;10975;47.872;12.972;2023-09-19T05:08:50;16.40;99.90
21627;DHT22;10975;47.872;12.972;2023-09-19T05:11:18;16.40;99.90
21627;DHT22;10975;47.872;12.972;2023-09-19T05:13:46;16.40;99.90
21627;DHT22;10975;47.872;12.972;2023-09-19T05:16:13;16.40;99.90
21627;DHT22;10975;47.872;12.972;2023-09-19T05:18:40;16.40;99.90
21627;DHT22;10975;47.872;12.972;2023-09-19T05:21:07;16.50;99.90
21627;DHT22;10975;47.872;12.972;2023-09-19T05:23:34;16.40;99.90
21627;DHT22;10975;47.872;12.972;2023-09-19T05:26:01;16.40;99.90
21627;DHT22;10975;47.872;12.972;2023-09-19T05:28:28;16.50;99.90
21627;DHT22;10975;47.872;12.972;2023-09-19T05:30:56;16.50;99.90
21627;DHT22;10975;47.872;12.972;2023-09-19T05:33:22;16.50;99.90
21627;DHT22;10975;47.872;12.972;2023-09-19T05:35:49;16.60;99.90
21627;DHT22;10975;47.872;12.972;2023-09-19T05:38:16;16.50;99.90
21627;DHT22;10975;47.872;12.972;2023-09-19T05:40:45;16.50;99.90
21627;DHT22;10975;47.872;12.972;2023-09-19T05:43:13;16.50;99.90
21627;DHT22;10975;47.872;12.972;2023-09-19T05:45:41;16.50;99.90
21627;DHT22;10975;47.872;12.972;2023-09-19T05:48:08;16.50;99.90
21627;DHT22;10975;47.872;12.972;2023-09-19T05:50:35;16.60;99.90
21627;DHT22;10975;47.872;12.972;2023-09-19T05:53:03;16.60;99.90
21627;DHT22;10975;47.872;12.972;2023-09-19T05:55:31;16.50;99.90
21627;DHT22;10975;47.872;12.972;2023-09-19T05:57:58;16.50;99.90
21627;DHT22;10975;47.872;12.972;2023-09-19T06:00:25;16.60;99.90
21627;DHT22;10975;47.872;12.972;2023-09-19T06:02:54;16.60;99.90
21627;DHT22;10975;47.872;12.972;2023-09-19T06:05:22;16.70;99.90
21627;DHT22;10975;47.872;12.972;2023-09-19T06:07:49;16.90;99.90
21627;DHT22;10975;47.872;12.972;2023-09-19T06:10:17;17.00;99.90
21627;DHT22;10975;47.872;12.972;2023-09-19T06:12:44;17.10;99.90
21627;DHT22;10975;47.872;12.972;2023-09-19T06:15:12;17.20;99.90
21627;DHT22;10975;47.872;12.972;2023-09-19T06:17:48;17.20;99.90
21627;DHT22;10975;47.872;12.972;2023-09-19T06:20:15;17.30;99.90
21627;DHT22;10975;47.872;12.972;2023-09-19T06:22:44;17.40;99.90
21627;DHT22;10975;47.872;12.972;2023-09-19T06:25:11;17.40;99.90
21627;DHT22;10975;47.872;12.972;2023-09-19T06:27:39;17.50;99.90
21627;DHT22;10975;47.872;12.972;2023-09-19T06:30:09;17.50;99.90
21627;DHT22;10975;47.872;12.972;2023-09-19T06:32:36;17.50;99.90
21627;DHT22;10975;47.872;12.972;2023-09-19T06:35:03;17.60;99.90
21627;DHT22;10975;47.872;12.972;2023-09-19T06:37:30;17.60;99.90
21627;DHT22;10975;47.872;12.972;2023-09-19T06:39:57;17.70;99.90
21627;DHT22;10975;47.872;12.972;2023-09-19T06:42:23;17.80;99.90
21627;DHT22;10975;47.872;12.972;2023-09-19T06:44:52;17.80;99.90
21627;DHT22;10975;47.872;12.972;2023-09-19T06:47:19;17.90;99.90
21627;DHT22;10975;47.872;12.972;2023-09-19T06:49:46;17.80;99.90
21627;DHT22;10975;47.872;12.972;2023-09-19T06:52:14;17.80;99.90
21627;DHT22;10975;47.872;12.972;2023-09-19T06:54:42;17.80;99.90
21627;DHT22;10975;47.872;12.972;2023-09-19T06:57:08;17.80;99.90
21627;DHT22;10975;47.872;12.972;2023-09-19T06:59:36;17.90;99.90
21627;DHT22;10975;47.872;12.972;2023-09-19T07:02:03;17.90;99.90
21627;DHT22;10975;47.872;12.972;2023-09-19T07:04:32;18.00;99.90
21627;DHT22;10975;47.872;12.972;2023-09-19T07:06:59;18.00;99.90
21627;DHT22;10975;47.872;12.972;2023-09-19T07:09:26;18.10;99.90
21627;DHT22;10975;47.872;12.972;2023-09-19T07:11:54;18.20;99.90
21627;DHT22;10975;47.872;12.972;2023-09-19T07:14:21;18.30;99.90
21627;DHT22;10975;47.872;12.972;2023-09-19T07:16:47;18.50;99.90
21627;DHT22;10975;47.872;12.972;2023-09-19T07:19:16;18.70;99.90
21627;DHT22;10975;47.872;12.972;2023-09-19T07:21:42;18.80;99.90
21627;DHT22;10975;47.872;12.972;2023-09-19T07:24:09;18.80;99.90
21627;DHT22;10975;47.872;12.972;2023-09-19T07:26:36;18.90;99.90
21627;DHT22;10975;47.872;12.972;2023-09-19T07:29:03;19.00;99.90
21627;DHT22;10975;47.872;12.972;2023-09-19T07:31:30;19.10;99.90
21627;DHT22;10975;47.872;12.972;2023-09-19T07:33:57;19.20;99.90
21627;DHT22;10975;47.872;12.972;2023-09-19T07:36:24;19.20;99.90
21627;DHT22;10975;47.872;12.972;2023-09-19T07:38:51;19.10;99.90
21627;DHT22;10975;47.872;12.972;2023-09-19T07:41:17;19.20;99.90
21627;DHT22;10975;47.872;12.972;2023-09-19T07:43:44;19.10;99.90
21627;DHT22;10975;47.872;12.972;2023-09-19T07:46:11;19.10;99.90
21627;DHT22;10975;47.872;12.972;2023-09-19T07:48:38;19.20;99.90
21627;DHT22;10975;47.872;12.972;2023-09-19T07:51:05;19.10;99.90
21627;DHT22;10975;47.872;12.972;2023-09-19T07:53:33;19.10;99.90
21627;DHT22;10975;47.872;12.972;2023-09-19T07:56:05;19.20;99.90
21627;DHT22;10975;47.872;12.972;2023-09-19T07:58:32;19.30;99.90
21627;DHT22;10975;47.872;12.972;2023-09-19T08:01:07;19.40;99.90
21627;DHT22;10975;47.872;12.972;2023-09-19T08:03:34;19.40;99.90
21627;DHT22;10975;47.872;12.972;2023-09-19T08:06:01;19.50;99.90
21627;DHT22;10975;47.872;12.972;2023-09-19T08:08:28;19.60;99.90
21627;DHT22;10975;47.872;12.972;2023-09-19T08:10:55;19.60;99.90
21627;DHT22;10975;47.872;12.972;2023-09-19T08:13:25;19.60;99.90
21627;DHT22;10975;47.872;12.972;2023-09-19T08:15:52;19.60;99.90
21627;DHT22;10975;47.872;12.972;2023-09-19T08:18:22;19.60;99.90
21627;DHT22;10975;47.872;12.972;2023-09-19T08:20:50;19.60;99.90
21627;DHT22;10975;47.872;12.972;2023-09-19T08:23:17;19.70;99.90
21627;DHT22;10975;47.872;12.972;2023-09-19T08:25:47;19.80;99.90
21627;DHT22;10975;47.872;12.972;2023-09-19T08:28:14;19.90;99.90
21627;DHT22;10975;47.872;12.972;2023-09-19T08:30:45;20.00;99.90
21627;DHT22;10975;47.872;12.972;2023-09-19T08:33:12;20.10;99.90
21627;DHT22;10975;47.872;12.972;2023-09-19T08:35:41;20.20;99.90
21627;DHT22;10975;47.872;12.972;2023-09-19T08:38:09;20.10;99.90
21627;DHT22;10975;47.872;12.972;2023-09-19T08:40:38;20.10;99.90
21627;DHT22;10975;47.872;12.972;2023-09-19T08:43:06;20.10;99.90
21627;DHT22;10975;47.872;12.972;2023-09-19T08:45:34;20.10;99.90
21627;DHT22;10975;47.872;12.972;2023-09-19T08:50:31;19.90;99.90
21627;DHT22;10975;47.872;12.972;2023-09-19T08:53:00;20.00;99.90
21627;DHT22;10975;47.872;12.972;2023-09-19T08:55:28;20.10;99.90
21627;DHT22;10975;47.872;12.972;2023-09-19T08:57:59;20.10;99.90
21627;DHT22;10975;47.872;12.972;2023-09-19T09:00:26;20.20;99.90
21627;DHT22;10975;47.872;12.972;2023-09-19T09:02:57;20.40;99.90
21627;DHT22;10975;47.872;12.972;2023-09-19T09:05:25;20.70;99.90
21627;DHT22;10975;47.872;12.972;2023-09-19T09:07:52;21.20;99.90
21627;DHT22;10975;47.872;12.972;2023-09-19T09:10:23;21.40;99.90
21627;DHT22;10975;47.872;12.972;2023-09-19T09:12:53;21.40;99.90
21627;DHT22;10975;47.872;12.972;2023-09-19T09:15:24;21.40;99.90
21627;DHT22;10975;47.872;12.972;2023-09-19T09:17:51;21.20;99.90
21627;DHT22;10975;47.872;12.972;2023-09-19T09:20:20;21.10;99.90
21627;DHT22;10975;47.872;12.972;2023-09-19T09:22:53;21.00;99.90
21627;DHT22;10975;47.872;12.972;2023-09-19T09:25:21;21.00;99.90
21627;DHT22;10975;47.872;12.972;2023-09-19T09:28:00;21.20;99.90
21627;DHT22;10975;47.872;12.972;2023-09-19T09:30:35;21.20;99.90
21627;DHT22;10975;47.872;12.972;2023-09-19T09:33:11;21.30;99.90
21627;DHT22;10975;47.872;12.972;2023-09-19T09:35:48;21.40;99.90
21627;DHT22;10975;47.872;12.972;2023-09-19T09:38:19;21.60;99.90
21627;DHT22;10975;47.872;12.972;2023-09-19T09:40:47;21.60;99.90
21627;DHT22;10975;47.872;12.972;2023-09-19T09:43:29;21.50;99.90
21627;DHT22;10975;47.872;12.972;2023-09-19T09:46:05;21.50;99.90
21627;DHT22;10975;47.872;12.972;2023-09-19T09:48:37;21.50;99.90
21627;DHT22;10975;47.872;12.972;2023-09-19T09:51:05;21.40;99.90
21627;DHT22;10975;47.872;12.972;2023-09-19T09:53:34;21.20;99.90
21627;DHT22;10975;47.872;12.972;2023-09-19T09:58:29;21.30;99.90
21627;DHT22;10975;47.872;12.972;2023-09-19T10:00:56;21.50;99.90
21627;DHT22;10975;47.872;12.972;2023-09-19T10:03:43;21.50;99.90
21627;DHT22;10975;47.872;12.972;2023-09-19T10:06:14;21.50;99.90
21627;DHT22;10975;47.872;12.972;2023-09-19T10:09:00;21.50;99.90
21627;DHT22;10975;47.872;12.972;2023-09-19T10:11:48;21.40;99.90
21627;DHT22;10975;47.872;12.972;2023-09-19T10:14:24;21.60;99.90
21627;DHT22;10975;47.872;12.972;2023-09-19T10:16:51;21.70;99.90
21627;DHT22;10975;47.872;12.972;2023-09-19T10:19:21;21.50;99.90
21627;DHT22;10975;47.872;12.972;2023-09-19T10:21:53;21.60;99.90
21627;DHT22;10975;47.872;12.972;2023-09-19T10:24:20;21.60;99.90
21627;DHT22;10975;47.872;12.972;2023-09-19T10:26:48;21.60;99.90
21627;DHT22;10975;47.872;12.972;2023-09-19T10:29:17;21.60;99.90
21627;DHT22;10975;47.872;12.972;2023-09-19T10:31:47;21.50;99.90
21627;DHT22;10975;47.872;12.972;2023-09-19T10:34:15;21.60;99.90
21627;DHT22;10975;47.872;12.972;2023-09-19T10:36:43;21.50;99.90
21627;DHT22;10975;47.872;12.972;2023-09-19T10:39:12;21.50;99.90
21627;DHT22;10975;47.872;12.972;2023-09-19T10:41:39;21.60;99.90
21627;DHT22;10975;47.872;12.972;2023-09-19T10:44:07;21.80;99.90
21627;DHT22;10975;47.872;12.972;2023-09-19T10:46:36;22.10;99.90
21627;DHT22;10975;47.872;12.972;2023-09-19T10:49:05;22.10;99.90
21627;DHT22;10975;47.872;12.972;2023-09-19T10:51:37;21.90;99.90
21627;DHT22;10975;47.872;12.972;2023-09-19T10:56:34;22.00;99.90
21627;DHT22;10975;47.872;12.972;2023-09-19T10:59:10;22.20;99.90
21627;DHT22;10975;47.872;12.972;2023-09-19T11:01:43;22.40;99.90
21627;DHT22;10975;47.872;12.972;2023-09-19T11:04:21;22.30;99.90
21627;DHT22;10975;47.872;12.972;2023-09-19T11:07:00;22.10;99.90
21627;DHT22;10975;47.872;12.972;2023-09-19T11:09:42;21.80;99.90
21627;DHT22;10975;47.872;12.972;2023-09-19T11:12:09;21.70;99.90
21627;DHT22;10975;47.872;12.972;2023-09-19T11:14:39;21.50;99.90
21627;DHT22;10975;47.872;12.972;2023-09-19T11:22:26;21.30;99.90
21627;DHT22;10975;47.872;12.972;2023-09-19T11:30:49;21.80;99.90
21627;DHT22;10975;47.872;12.972;2023-09-19T11:33:29;22.00;99.90
21627;DHT22;10975;47.872;12.972;2023-09-19T11:36:11;22.10;99.90
21627;DHT22;10975;47.872;12.972;2023-09-19T11:46:53;22.00;99.90
21627;DHT22;10975;47.872;12.972;2023-09-19T11:49:26;21.90;99.90
21627;DHT22;10975;47.872;12.972;2023-09-19T11:51:56;21.90;99.90
21627;DHT22;10975;47.872;12.972;2023-09-19T11:54:23;22.00;99.90
21627;DHT22;10975;47.872;12.972;2023-09-19T11:56:55;22.20;99.90
21627;DHT22;10975;47.872;12.972;2023-09-19T11:59:22;22.50;99.90
21627;DHT22;10975;47.872;12.972;2023-09-19T12:01:53;22.50;99.90
21627;DHT22;10975;47.872;12.972;2023-09-19T12:04:43;22.50;99.90
21627;DHT22;10975;47.872;12.972;2023-09-19T12:07:12;22.30;99.90
21627;DHT22;10975;47.872;12.972;2023-09-19T12:09:46;22.20;99.90
21627;DHT22;10975;47.872;12.972;2023-09-19T12:12:20;22.30;99.90
21627;DHT22;10975;47.872;12.972;2023-09-19T12:14:47;22.10;99.90
21627;DHT22;10975;47.872;12.972;2023-09-19T12:17:14;21.90;99.90
21627;DHT22;10975;47.872;12.972;2023-09-19T12:19:49;21.50;99.90
21627;DHT22;10975;47.872;12.972;2023-09-19T12:22:16;21.40;99.90
21627;DHT22;10975;47.872;12.972;2023-09-19T12:24:45;21.50;99.90
21627;DHT22;10975;47.872;12.972;2023-09-19T12:27:13;21.70;99.90
21627;DHT22;10975;47.872;12.972;2023-09-19T12:29:43;21.80;99.90
21627;DHT22;10975;47.872;12.972;2023-09-19T12:32:11;21.90;99.90
21627;DHT22;10975;47.872;12.972;2023-09-19T12:34:37;22.00;99.90
21627;DHT22;10975;47.872;12.972;2023-09-19T12:37:13;22.00;99.90
21627;DHT22;10975;47.872;12.972;2023-09-19T12:39:48;22.10;99.90
21627;DHT22;10975;47.872;12.972;2023-09-19T12:42:16;22.10;99.90
21627;DHT22;10975;47.872;12.972;2023-09-19T12:44:43;22.20;99.90
21627;DHT22;10975;47.872;12.972;2023-09-19T12:47:11;22.40;99.90
21627;DHT22;10975;47.872;12.972;2023-09-19T12:52:23;22.40;99.90
21627;DHT22;10975;47.872;12.972;2023-09-19T12:54:52;22.40;99.90
21627;DHT22;10975;47.872;12.972;2023-09-19T12:57:25;22.30;99.90
21627;DHT22;10975;47.872;12.972;2023-09-19T12:59:52;22.50;99.90
21627;DHT22;10975;47.872;12.972;2023-09-19T13:02:19;22.70;99.90
21627;DHT22;10975;47.872;12.972;2023-09-19T13:04:53;22.60;99.90
21627;DHT22;10975;47.872;12.972;2023-09-19T13:07:39;22.50;99.90
21627;DHT22;10975;47.872;12.972;2023-09-19T13:10:09;22.40;99.90
21627;DHT22;10975;47.872;12.972;2023-09-19T13:12:37;22.40;99.90
21627;DHT22;10975;47.872;12.972;2023-09-19T13:15:11;22.50;99.90
21627;DHT22;10975;47.872;12.972;2023-09-19T13:17:43;22.50;99.90
21627;DHT22;10975;47.872;12.972;2023-09-19T13:20:26;22.50;99.90
21627;DHT22;10975;47.872;12.972;2023-09-19T13:22:56;22.50;99.90
21627;DHT22;10975;47.872;12.972;2023-09-19T13:25:37;22.50;99.90
21627;DHT22;10975;47.872;12.972;2023-09-19T13:28:06;22.50;99.90
21627;DHT22;10975;47.872;12.972;2023-09-19T13:30:33;22.60;99.90
21627;DHT22;10975;47.872;12.972;2023-09-19T13:33:10;22.70;99.90
21627;DHT22;10975;47.872;12.972;2023-09-19T13:35:40;22.60;99.90
21627;DHT22;10975;47.872;12.972;2023-09-19T13:38:07;22.70;99.90
21627;DHT22;10975;47.872;12.972;2023-09-19T13:40:38;22.80;99.90
21627;DHT22;10975;47.872;12.972;2023-09-19T13:43:08;22.80;99.90
21627;DHT22;10975;47.872;12.972;2023-09-19T13:45:35;22.90;99.90
21627;DHT22;10975;47.872;12.972;2023-09-19T13:48:03;22.80;99.90
21627;DHT22;10975;47.872;12.972;2023-09-19T13:50:29;22.90;99.90
21627;DHT22;10975;47.872;12.972;2023-09-19T13:52:58;23.00;99.90
21627;DHT22;10975;47.872;12.972;2023-09-19T13:55:27;23.00;99.90
21627;DHT22;10975;47.872;12.972;2023-09-19T13:57:54;23.20;99.90
21627;DHT22;10975;47.872;12.972;2023-09-19T14:00:22;23.30;99.90
21627;DHT22;10975;47.872;12.972;2023-09-19T14:02:49;23.40;99.90
21627;DHT22;10975;47.872;12.972;2023-09-19T14:05:18;23.30;99.90
21627;DHT22;10975;47.872;12.972;2023-09-19T14:07:45;23.20;99.90
21627;DHT22;10975;47.872;12.972;2023-09-19T14:10:13;23.10;99.90
21627;DHT22;10975;47.872;12.972;2023-09-19T14:12:40;23.00;99.90
21627;DHT22;10975;47.872;12.972;2023-09-19T14:15:11;23.00;99.90
21627;DHT22;10975;47.872;12.972;2023-09-19T14:17:39;22.80;99.90
21627;DHT22;10975;47.872;12.972;2023-09-19T14:20:06;22.70;99.90
21627;DHT22;10975;47.872;12.972;2023-09-19T14:22:33;22.80;99.90
21627;DHT22;10975;47.872;12.972;2023-09-19T14:25:00;23.00;99.90
21627;DHT22;10975;47.872;12.972;2023-09-19T14:27:27;23.00;99.90
21627;DHT22;10975;47.872;12.972;2023-09-19T14:29:54;23.10;99.90
21627;DHT22;10975;47.872;12.972;2023-09-19T14:32:21;23.10;99.90
21627;DHT22;10975;47.872;12.972;2023-09-19T14:34:48;23.00;99.90
21627;DHT22;10975;47.872;12.972;2023-09-19T14:37:15;22.90;99.90
21627;DHT22;10975;47.872;12.972;2023-09-19T14:39:47;22.90;99.90
21627;DHT22;10975;47.872;12.972;2023-09-19T14:42:14;22.90;99.90
21627;DHT22;10975;47.872;12.972;2023-09-19T14:44:44;22.90;99.90
21627;DHT22;10975;47.872;12.972;2023-09-19T14:47:11;22.90;99.90
21627;DHT22;10975;47.872;12.972;2023-09-19T14:49:40;22.90;99.90
21627;DHT22;10975;47.872;12.972;2023-09-19T14:52:07;22.90;99.90
21627;DHT22;10975;47.872;12.972;2023-09-19T14:54:34;22.90;99.90
21627;DHT22;10975;47.872;12.972;2023-09-19T14:57:01;22.90;99.90
21627;DHT22;10975;47.872;12.972;2023-09-19T14:59:31;23.00;99.90
21627;DHT22;10975;47.872;12.972;2023-09-19T15:01:58;22.90;99.90
21627;DHT22;10975;47.872;12.972;2023-09-19T15:04:26;22.60;99.90
21627;DHT22;10975;47.872;12.972;2023-09-19T15:06:54;22.40;99.90
21627;DHT22;10975;47.872;12.972;2023-09-19T15:09:22;22.30;99.90
21627;DHT22;10975;47.872;12.972;2023-09-19T15:11:50;22.30;99.90
21627;DHT22;10975;47.872;12.972;2023-09-19T15:14:18;22.30;99.90
21627;DHT22;10975;47.872;12.972;2023-09-19T15:16:44;22.30;99.90
21627;DHT22;10975;47.872;12.972;2023-09-19T15:19:12;22.20;99.90
21627;DHT22;10975;47.872;12.972;2023-09-19T15:21:39;22.20;99.90
21627;DHT22;10975;47.872;12.972;2023-09-19T15:24:06;22.10;99.90
21627;DHT22;10975;47.872;12.972;2023-09-19T15:26:36;22.00;99.90
21627;DHT22;10975;47.872;12.972;2023-09-19T15:29:06;21.90;99.90
21627;DHT22;10975;47.872;12.972;2023-09-19T15:31:34;21.90;99.90
21627;DHT22;10975;47.872;12.972;2023-09-19T15:34:03;21.90;99.90
21627;DHT22;10975;47.872;12.972;2023-09-19T15:36:30;21.90;99.90
21627;DHT22;10975;47.872;12.972;2023-09-19T15:41:24;22.00;99.90
21627;DHT22;10975;47.872;12.972;2023-09-19T15:43:50;22.00;99.90
21627;DHT22;10975;47.872;12.972;2023-09-19T15:46:17;22.00;99.90
21627;DHT22;10975;47.872;12.972;2023-09-19T15:48:44;22.00;99.90
21627;DHT22;10975;47.872;12.972;2023-09-19T15:51:12;22.20;99.90
21627;DHT22;10975;47.872;12.972;2023-09-19T15:53:46;22.30;99.90
21627;DHT22;10975;47.872;12.972;2023-09-19T15:56:13;22.30;99.90
21627;DHT22;10975;47.872;12.972;2023-09-19T15:58:40;22.30;99.90
21627;DHT22;10975;47.872;12.972;2023-09-19T16:01:08;22.20;99.90
21627;DHT22;10975;47.872;12.972;2023-09-19T16:03:36;22.00;99.90
21627;DHT22;10975;47.872;12.972;2023-09-19T16:06:10;21.90;99.90
21627;DHT22;10975;47.872;12.972;2023-09-19T16:08:41;21.80;99.90
21627;DHT22;10975;47.872;12.972;2023-09-19T16:11:08;21.60;99.90
21627;DHT22;10975;47.872;12.972;2023-09-19T16:13:36;21.50;99.90